Lima, Iowa
Current Conditions -  °F | °C
As of 12:35 AM on Monday 24 Nov 2014 (Local Time) from KOLZ Reporting Station
Haze Haze  
Wind Chill: 23°   Ceiling: 700
Heat Index: 36°   Visibility: 5mi
Dew Point: 34°   Wind: 25mph
Humidity: 93%   Direction: 310°NW
Pressure: 29.24"   Gusts: NA
Location:  42.8663°N, 91.8396°W
Report Text: KOLZ 240635Z AUTO 31022KT 5SM BR OVC007 02/01 A2924 RMK AO2
Loading
Personal Weather Stations






























Interactive Weather Map New forecast layout! Learn more

10-Day Weather Forecast

Advertisements
Track Severe Weather on mobile